sensor_id;sensor_type;location;lat;lon;timestamp;P1;durP1;ratioP1;P2;durP2;ratioP2
21899;SDS011;11114;50.658;12.704;2022-10-16T00:01:26;15.48;;;14.50;;
21899;SDS011;11114;50.658;12.704;2022-10-16T00:03:54;14.68;;;13.77;;
21899;SDS011;11114;50.658;12.704;2022-10-16T00:06:22;15.10;;;14.20;;
21899;SDS011;11114;50.658;12.704;2022-10-16T00:08:50;14.82;;;13.57;;
21899;SDS011;11114;50.658;12.704;2022-10-16T00:11:21;14.65;;;13.75;;
21899;SDS011;11114;50.658;12.704;2022-10-16T00:13:57;14.60;;;13.70;;
21899;SDS011;11114;50.658;12.704;2022-10-16T00:16:25;14.68;;;13.77;;
21899;SDS011;11114;50.658;12.704;2022-10-16T00:18:53;14.52;;;13.63;;
21899;SDS011;11114;50.658;12.704;2022-10-16T00:21:21;14.65;;;13.75;;
21899;SDS011;11114;50.658;12.704;2022-10-16T00:23:57;15.43;;;14.43;;
21899;SDS011;11114;50.658;12.704;2022-10-16T00:26:27;15.13;;;14.23;;
21899;SDS011;11114;50.658;12.704;2022-10-16T00:28:55;15.80;;;14.70;;
21899;SDS011;11114;50.658;12.704;2022-10-16T00:31:22;15.55;;;14.55;;
21899;SDS011;11114;50.658;12.704;2022-10-16T00:33:49;14.73;;;13.82;;
21899;SDS011;11114;50.658;12.704;2022-10-16T00:36:18;14.80;;;13.90;;
21899;SDS011;11114;50.658;12.704;2022-10-16T00:38:49;14.23;;;13.32;;
21899;SDS011;11114;50.658;12.704;2022-10-16T00:41:19;14.40;;;13.40;;
21899;SDS011;11114;50.658;12.704;2022-10-16T00:43:48;14.20;;;13.30;;
21899;SDS011;11114;50.658;12.704;2022-10-16T00:46:23;14.10;;;13.18;;
21899;SDS011;11114;50.658;12.704;2022-10-16T00:49:14;14.05;;;13.15;;
21899;SDS011;11114;50.658;12.704;2022-10-16T00:51:47;14.48;;;13.57;;
21899;SDS011;11114;50.658;12.704;2022-10-16T00:54:24;14.57;;;13.68;;
21899;SDS011;11114;50.658;12.704;2022-10-16T00:56:55;14.05;;;13.15;;
21899;SDS011;11114;50.658;12.704;2022-10-16T00:59:26;14.43;;;13.52;;
21899;SDS011;11114;50.658;12.704;2022-10-16T01:01:56;14.70;;;13.55;;
21899;SDS011;11114;50.658;12.704;2022-10-16T01:04:24;13.80;;;12.90;;
21899;SDS011;11114;50.658;12.704;2022-10-16T01:15:26;14.32;;;13.32;;
21899;SDS011;11114;50.658;12.704;2022-10-16T01:28:24;14.75;;;13.85;;
21899;SDS011;11114;50.658;12.704;2022-10-16T01:30:59;14.50;;;13.50;;
21899;SDS011;11114;50.658;12.704;2022-10-16T01:33:28;14.60;;;13.70;;
21899;SDS011;11114;50.658;12.704;2022-10-16T01:36:03;14.60;;;13.60;;
21899;SDS011;11114;50.658;12.704;2022-10-16T01:38:37;14.25;;;13.35;;
21899;SDS011;11114;50.658;12.704;2022-10-16T01:41:08;14.35;;;13.45;;
21899;SDS011;11114;50.658;12.704;2022-10-16T01:43:43;14.45;;;13.55;;
21899;SDS011;11114;50.658;12.704;2022-10-16T01:46:16;14.75;;;13.85;;
21899;SDS011;11114;50.658;12.704;2022-10-16T01:48:45;14.43;;;13.52;;
21899;SDS011;11114;50.658;12.704;2022-10-16T01:51:13;14.65;;;13.55;;
21899;SDS011;11114;50.658;12.704;2022-10-16T01:53:43;14.13;;;13.32;;
21899;SDS011;11114;50.658;12.704;2022-10-16T01:56:14;14.25;;;13.35;;
21899;SDS011;11114;50.658;12.704;2022-10-16T01:58:52;13.77;;;12.88;;
21899;SDS011;11114;50.658;12.704;2022-10-16T02:01:32;14.20;;;13.30;;
21899;SDS011;11114;50.658;12.704;2022-10-16T02:04:03;14.48;;;13.43;;
21899;SDS011;11114;50.658;12.704;2022-10-16T02:06:38;14.77;;;13.88;;
21899;SDS011;11114;50.658;12.704;2022-10-16T02:09:05;14.65;;;13.75;;
21899;SDS011;11114;50.658;12.704;2022-10-16T02:11:31;14.85;;;13.70;;
21899;SDS011;11114;50.658;12.704;2022-10-16T02:14:00;14.35;;;13.35;;
21899;SDS011;11114;50.658;12.704;2022-10-16T02:16:34;15.02;;;14.02;;
21899;SDS011;11114;50.658;12.704;2022-10-16T02:19:04;14.55;;;13.65;;
21899;SDS011;11114;50.658;12.704;2022-10-16T02:21:52;14.38;;;13.25;;
21899;SDS011;11114;50.658;12.704;2022-10-16T02:24:25;14.15;;;13.25;;
21899;SDS011;11114;50.658;12.704;2022-10-16T02:29:29;14.75;;;13.55;;
21899;SDS011;11114;50.658;12.704;2022-10-16T02:32:00;14.27;;;13.38;;
21899;SDS011;11114;50.658;12.704;2022-10-16T02:34:30;14.20;;;13.30;;
21899;SDS011;11114;50.658;12.704;2022-10-16T02:36:59;14.40;;;13.50;;
21899;SDS011;11114;50.658;12.704;2022-10-16T02:39:29;14.20;;;13.30;;
21899;SDS011;11114;50.658;12.704;2022-10-16T02:41:57;14.23;;;13.32;;
21899;SDS011;11114;50.658;12.704;2022-10-16T02:44:24;14.25;;;13.35;;
21899;SDS011;11114;50.658;12.704;2022-10-16T02:46:51;14.43;;;13.52;;
21899;SDS011;11114;50.658;12.704;2022-10-16T02:49:18;14.02;;;13.10;;
21899;SDS011;11114;50.658;12.704;2022-10-16T02:51:45;13.57;;;12.77;;
21899;SDS011;11114;50.658;12.704;2022-10-16T02:54:12;13.60;;;12.80;;
21899;SDS011;11114;50.658;12.704;2022-10-16T02:56:39;13.98;;;13.07;;
21899;SDS011;11114;50.658;12.704;2022-10-16T02:59:06;14.13;;;13.13;;
21899;SDS011;11114;50.658;12.704;2022-10-16T03:01:32;14.32;;;13.38;;
21899;SDS011;11114;50.658;12.704;2022-10-16T03:03:59;14.68;;;13.77;;
21899;SDS011;11114;50.658;12.704;2022-10-16T03:06:26;14.35;;;13.45;;
21899;SDS011;11114;50.658;12.704;2022-10-16T03:08:53;14.25;;;13.35;;
21899;SDS011;11114;50.658;12.704;2022-10-16T03:11:20;14.13;;;13.13;;
21899;SDS011;11114;50.658;12.704;2022-10-16T03:13:47;14.50;;;13.60;;
21899;SDS011;11114;50.658;12.704;2022-10-16T03:16:13;14.45;;;13.45;;
21899;SDS011;11114;50.658;12.704;2022-10-16T03:18:40;14.10;;;13.20;;
21899;SDS011;11114;50.658;12.704;2022-10-16T03:21:07;14.25;;;13.35;;
21899;SDS011;11114;50.658;12.704;2022-10-16T03:23:34;14.30;;;13.40;;
21899;SDS011;11114;50.658;12.704;2022-10-16T03:26:00;14.90;;;13.70;;
21899;SDS011;11114;50.658;12.704;2022-10-16T03:28:27;14.45;;;13.45;;
21899;SDS011;11114;50.658;12.704;2022-10-16T03:30:54;14.40;;;13.40;;
21899;SDS011;11114;50.658;12.704;2022-10-16T03:33:24;14.52;;;13.32;;
21899;SDS011;11114;50.658;12.704;2022-10-16T03:35:54;14.65;;;13.55;;
21899;SDS011;11114;50.658;12.704;2022-10-16T03:38:21;14.90;;;14.00;;
21899;SDS011;11114;50.658;12.704;2022-10-16T03:40:48;14.48;;;13.55;;
21899;SDS011;11114;50.658;12.704;2022-10-16T03:43:15;14.50;;;13.60;;
21899;SDS011;11114;50.658;12.704;2022-10-16T03:45:42;15.00;;;14.10;;
21899;SDS011;11114;50.658;12.704;2022-10-16T03:48:09;14.65;;;13.65;;
21899;SDS011;11114;50.658;12.704;2022-10-16T03:50:35;14.60;;;13.70;;
21899;SDS011;11114;50.658;12.704;2022-10-16T03:53:02;14.93;;;13.93;;
21899;SDS011;11114;50.658;12.704;2022-10-16T03:55:29;14.85;;;13.85;;
21899;SDS011;11114;50.658;12.704;2022-10-16T03:57:56;15.27;;;14.20;;
21899;SDS011;11114;50.658;12.704;2022-10-16T04:00:23;15.40;;;14.40;;
21899;SDS011;11114;50.658;12.704;2022-10-16T04:02:50;15.57;;;14.48;;
21899;SDS011;11114;50.658;12.704;2022-10-16T04:05:17;15.68;;;14.68;;
21899;SDS011;11114;50.658;12.704;2022-10-16T04:07:44;15.35;;;14.35;;
21899;SDS011;11114;50.658;12.704;2022-10-16T04:10:10;15.30;;;14.27;;
21899;SDS011;11114;50.658;12.704;2022-10-16T04:12:37;15.60;;;14.60;;
21899;SDS011;11114;50.658;12.704;2022-10-16T04:15:04;15.68;;;14.50;;
21899;SDS011;11114;50.658;12.704;2022-10-16T04:17:31;15.75;;;14.55;;
21899;SDS011;11114;50.658;12.704;2022-10-16T04:19:58;15.60;;;14.57;;
21899;SDS011;11114;50.658;12.704;2022-10-16T04:22:24;15.15;;;14.25;;
21899;SDS011;11114;50.658;12.704;2022-10-16T04:24:52;15.38;;;14.38;;
21899;SDS011;11114;50.658;12.704;2022-10-16T04:27:19;15.35;;;14.35;;
21899;SDS011;11114;50.658;12.704;2022-10-16T04:29:46;15.70;;;14.60;;
21899;SDS011;11114;50.658;12.704;2022-10-16T04:32:12;15.45;;;14.45;;
21899;SDS011;11114;50.658;12.704;2022-10-16T04:34:39;15.77;;;14.57;;
21899;SDS011;11114;50.658;12.704;2022-10-16T04:37:06;15.77;;;14.50;;
21899;SDS011;11114;50.658;12.704;2022-10-16T04:39:33;15.80;;;14.80;;
21899;SDS011;11114;50.658;12.704;2022-10-16T04:42:00;15.18;;;14.27;;
21899;SDS011;11114;50.658;12.704;2022-10-16T04:44:27;14.00;;;13.20;;
21899;SDS011;11114;50.658;12.704;2022-10-16T04:46:54;14.70;;;13.80;;
21899;SDS011;11114;50.658;12.704;2022-10-16T04:49:21;15.18;;;14.18;;
21899;SDS011;11114;50.658;12.704;2022-10-16T04:51:47;15.10;;;14.10;;
21899;SDS011;11114;50.658;12.704;2022-10-16T04:54:14;15.25;;;14.25;;
21899;SDS011;11114;50.658;12.704;2022-10-16T04:56:41;14.43;;;13.52;;
21899;SDS011;11114;50.658;12.704;2022-10-16T04:59:14;15.23;;;14.07;;
21899;SDS011;11114;50.658;12.704;2022-10-16T05:01:41;14.88;;;13.88;;
21899;SDS011;11114;50.658;12.704;2022-10-16T05:04:08;15.00;;;14.00;;
21899;SDS011;11114;50.658;12.704;2022-10-16T05:06:35;14.63;;;13.73;;
21899;SDS011;11114;50.658;12.704;2022-10-16T05:09:02;14.95;;;14.05;;
21899;SDS011;11114;50.658;12.704;2022-10-16T05:11:29;14.82;;;13.93;;
21899;SDS011;11114;50.658;12.704;2022-10-16T05:13:56;14.05;;;13.15;;
21899;SDS011;11114;50.658;12.704;2022-10-16T05:16:23;14.27;;;13.38;;
21899;SDS011;11114;50.658;12.704;2022-10-16T05:18:51;14.18;;;13.27;;
21899;SDS011;11114;50.658;12.704;2022-10-16T05:21:21;14.50;;;13.50;;
21899;SDS011;11114;50.658;12.704;2022-10-16T05:23:48;14.40;;;13.50;;
21899;SDS011;11114;50.658;12.704;2022-10-16T05:26:15;14.85;;;13.82;;
21899;SDS011;11114;50.658;12.704;2022-10-16T05:28:42;14.57;;;13.45;;
21899;SDS011;11114;50.658;12.704;2022-10-16T05:31:09;14.75;;;13.85;;
21899;SDS011;11114;50.658;12.704;2022-10-16T05:33:36;14.40;;;13.50;;
21899;SDS011;11114;50.658;12.704;2022-10-16T05:36:03;14.63;;;13.68;;
21899;SDS011;11114;50.658;12.704;2022-10-16T05:41:01;14.52;;;13.43;;
21899;SDS011;11114;50.658;12.704;2022-10-16T05:43:29;14.50;;;13.50;;
21899;SDS011;11114;50.658;12.704;2022-10-16T05:45:57;14.68;;;13.77;;
21899;SDS011;11114;50.658;12.704;2022-10-16T05:48:25;15.20;;;14.20;;
21899;SDS011;11114;50.658;12.704;2022-10-16T05:50:56;15.00;;;13.98;;
21899;SDS011;11114;50.658;12.704;2022-10-16T05:53:24;14.88;;;13.98;;
21899;SDS011;11114;50.658;12.704;2022-10-16T05:55:52;16.05;;;14.80;;
21899;SDS011;11114;50.658;12.704;2022-10-16T05:58:20;15.65;;;14.65;;
21899;SDS011;11114;50.658;12.704;2022-10-16T06:00:57;15.00;;;14.10;;
21899;SDS011;11114;50.658;12.704;2022-10-16T06:03:29;15.13;;;14.13;;
21899;SDS011;11114;50.658;12.704;2022-10-16T06:05:56;15.00;;;14.10;;
21899;SDS011;11114;50.658;12.704;2022-10-16T06:08:23;14.95;;;14.02;;
21899;SDS011;11114;50.658;12.704;2022-10-16T06:10:59;15.10;;;14.10;;
21899;SDS011;11114;50.658;12.704;2022-10-16T06:13:28;15.25;;;14.25;;
21899;SDS011;11114;50.658;12.704;2022-10-16T06:15:56;15.27;;;14.27;;
21899;SDS011;11114;50.658;12.704;2022-10-16T06:18:24;15.50;;;14.40;;
21899;SDS011;11114;50.658;12.704;2022-10-16T06:20:52;15.45;;;14.45;;
21899;SDS011;11114;50.658;12.704;2022-10-16T06:23:19;16.05;;;14.75;;
21899;SDS011;11114;50.658;12.704;2022-10-16T06:25:45;15.82;;;14.82;;
21899;SDS011;11114;50.658;12.704;2022-10-16T06:28:15;16.10;;;15.10;;
21899;SDS011;11114;50.658;12.704;2022-10-16T06:30:43;16.85;;;15.75;;
21899;SDS011;11114;50.658;12.704;2022-10-16T06:33:10;16.70;;;15.60;;
21899;SDS011;11114;50.658;12.704;2022-10-16T06:35:37;16.95;;;15.82;;
21899;SDS011;11114;50.658;12.704;2022-10-16T06:38:04;17.35;;;16.20;;
21899;SDS011;11114;50.658;12.704;2022-10-16T06:40:31;17.15;;;16.05;;
21899;SDS011;11114;50.658;12.704;2022-10-16T06:42:58;16.63;;;15.52;;
21899;SDS011;11114;50.658;12.704;2022-10-16T06:45:25;16.92;;;15.82;;
21899;SDS011;11114;50.658;12.704;2022-10-16T06:47:52;16.42;;;15.43;;
21899;SDS011;11114;50.658;12.704;2022-10-16T06:50:18;16.40;;;15.30;;
21899;SDS011;11114;50.658;12.704;2022-10-16T06:52:46;16.85;;;15.75;;
21899;SDS011;11114;50.658;12.704;2022-10-16T06:55:12;16.95;;;15.85;;
21899;SDS011;11114;50.658;12.704;2022-10-16T06:57:39;16.90;;;15.80;;
21899;SDS011;11114;50.658;12.704;2022-10-16T07:00:06;16.98;;;15.88;;
21899;SDS011;11114;50.658;12.704;2022-10-16T07:02:33;17.33;;;16.10;;
21899;SDS011;11114;50.658;12.704;2022-10-16T07:05:00;16.90;;;15.80;;
21899;SDS011;11114;50.658;12.704;2022-10-16T07:07:27;16.75;;;15.65;;
21899;SDS011;11114;50.658;12.704;2022-10-16T07:09:54;17.15;;;16.05;;
21899;SDS011;11114;50.658;12.704;2022-10-16T07:12:21;17.02;;;15.90;;
21899;SDS011;11114;50.658;12.704;2022-10-16T07:14:48;17.05;;;15.95;;
21899;SDS011;11114;50.658;12.704;2022-10-16T07:17:18;17.13;;;15.80;;
21899;SDS011;11114;50.658;12.704;2022-10-16T07:19:45;16.75;;;15.50;;
21899;SDS011;11114;50.658;12.704;2022-10-16T07:22:12;17.38;;;16.17;;
21899;SDS011;11114;50.658;12.704;2022-10-16T07:24:38;16.90;;;15.70;;
21899;SDS011;11114;50.658;12.704;2022-10-16T07:27:05;16.65;;;15.45;;
21899;SDS011;11114;50.658;12.704;2022-10-16T07:29:33;16.40;;;15.30;;
21899;SDS011;11114;50.658;12.704;2022-10-16T07:32:01;16.65;;;15.55;;
21899;SDS011;11114;50.658;12.704;2022-10-16T07:34:28;16.45;;;15.35;;
21899;SDS011;11114;50.658;12.704;2022-10-16T07:36:54;16.65;;;15.55;;
21899;SDS011;11114;50.658;12.704;2022-10-16T07:39:21;16.95;;;15.80;;
21899;SDS011;11114;50.658;12.704;2022-10-16T07:41:48;17.15;;;15.95;;
21899;SDS011;11114;50.658;12.704;2022-10-16T07:44:15;16.88;;;15.77;;
21899;SDS011;11114;50.658;12.704;2022-10-16T07:46:42;17.30;;;16.08;;
21899;SDS011;11114;50.658;12.704;2022-10-16T07:49:09;17.60;;;16.40;;
21899;SDS011;11114;50.658;12.704;2022-10-16T07:51:39;17.90;;;16.70;;
21899;SDS011;11114;50.658;12.704;2022-10-16T07:54:05;17.50;;;16.30;;
21899;SDS011;11114;50.658;12.704;2022-10-16T07:56:34;17.83;;;16.63;;
21899;SDS011;11114;50.658;12.704;2022-10-16T08:01:31;17.23;;;15.95;;
21899;SDS011;11114;50.658;12.704;2022-10-16T08:03:58;17.33;;;16.13;;
21899;SDS011;11114;50.658;12.704;2022-10-16T08:06:25;17.48;;;16.13;;
21899;SDS011;11114;50.658;12.704;2022-10-16T08:08:54;17.25;;;16.15;;
21899;SDS011;11114;50.658;12.704;2022-10-16T08:11:21;17.50;;;16.35;;
21899;SDS011;11114;50.658;12.704;2022-10-16T08:13:49;17.02;;;15.93;;
21899;SDS011;11114;50.658;12.704;2022-10-16T08:16:16;17.05;;;15.85;;
21899;SDS011;11114;50.658;12.704;2022-10-16T08:18:43;18.80;;;17.50;;
21899;SDS011;11114;50.658;12.704;2022-10-16T08:21:14;18.52;;;17.17;;
21899;SDS011;11114;50.658;12.704;2022-10-16T08:23:46;18.02;;;16.83;;
21899;SDS011;11114;50.658;12.704;2022-10-16T08:26:22;18.05;;;16.65;;
21899;SDS011;11114;50.658;12.704;2022-10-16T08:28:50;18.20;;;16.90;;
21899;SDS011;11114;50.658;12.704;2022-10-16T08:31:18;18.30;;;17.00;;
21899;SDS011;11114;50.658;12.704;2022-10-16T08:33:45;17.73;;;16.42;;
21899;SDS011;11114;50.658;12.704;2022-10-16T08:36:13;17.52;;;16.33;;
21899;SDS011;11114;50.658;12.704;2022-10-16T08:38:41;17.45;;;16.25;;
21899;SDS011;11114;50.658;12.704;2022-10-16T08:49:29;17.55;;;16.35;;
21899;SDS011;11114;50.658;12.704;2022-10-16T08:51:56;17.85;;;16.60;;
21899;SDS011;11114;50.658;12.704;2022-10-16T08:57:17;17.75;;;16.42;;
21899;SDS011;11114;50.658;12.704;2022-10-16T08:59:50;17.10;;;15.98;;
21899;SDS011;11114;50.658;12.704;2022-10-16T09:13:26;17.40;;;16.20;;
21899;SDS011;11114;50.658;12.704;2022-10-16T09:15:59;17.55;;;16.35;;
21899;SDS011;11114;50.658;12.704;2022-10-16T09:21:13;16.25;;;15.15;;
21899;SDS011;11114;50.658;12.704;2022-10-16T09:23:44;17.52;;;16.30;;
21899;SDS011;11114;50.658;12.704;2022-10-16T09:26:13;17.05;;;15.88;;
21899;SDS011;11114;50.658;12.704;2022-10-16T09:31:16;16.70;;;15.50;;
21899;SDS011;11114;50.658;12.704;2022-10-16T09:33:47;17.30;;;16.10;;
21899;SDS011;11114;50.658;12.704;2022-10-16T09:36:27;17.38;;;16.17;;
21899;SDS011;11114;50.658;12.704;2022-10-16T09:39:02;17.30;;;16.10;;
21899;SDS011;11114;50.658;12.704;2022-10-16T09:41:34;17.35;;;16.05;;
21899;SDS011;11114;50.658;12.704;2022-10-16T09:44:04;17.55;;;16.35;;
21899;SDS011;11114;50.658;12.704;2022-10-16T09:46:42;17.20;;;16.00;;
21899;SDS011;11114;50.658;12.704;2022-10-16T09:49:20;16.85;;;15.75;;
21899;SDS011;11114;50.658;12.704;2022-10-16T09:52:02;17.70;;;16.50;;
21899;SDS011;11114;50.658;12.704;2022-10-16T09:54:37;17.38;;;16.05;;
21899;SDS011;11114;50.658;12.704;2022-10-16T09:57:15;17.30;;;16.15;;
21899;SDS011;11114;50.658;12.704;2022-10-16T09:59:45;17.33;;;16.13;;
21899;SDS011;11114;50.658;12.704;2022-10-16T10:02:17;17.20;;;16.00;;
21899;SDS011;11114;50.658;12.704;2022-10-16T10:04:52;17.02;;;15.82;;
21899;SDS011;11114;50.658;12.704;2022-10-16T10:07:23;16.83;;;15.73;;
21899;SDS011;11114;50.658;12.704;2022-10-16T10:09:54;18.00;;;16.48;;
21899;SDS011;11114;50.658;12.704;2022-10-16T10:12:26;17.92;;;16.65;;
21899;SDS011;11114;50.658;12.704;2022-10-16T10:14:56;16.88;;;15.77;;
21899;SDS011;11114;50.658;12.704;2022-10-16T10:17:51;17.42;;;16.13;;
21899;SDS011;11114;50.658;12.704;2022-10-16T10:20:23;18.30;;;16.80;;
21899;SDS011;11114;50.658;12.704;2022-10-16T10:23:13;18.13;;;16.83;;
21899;SDS011;11114;50.658;12.704;2022-10-16T10:28:40;16.95;;;15.75;;
21899;SDS011;11114;50.658;12.704;2022-10-16T10:34:02;16.48;;;15.27;;
21899;SDS011;11114;50.658;12.704;2022-10-16T10:36:37;17.05;;;15.85;;
21899;SDS011;11114;50.658;12.704;2022-10-16T10:39:11;17.63;;;16.33;;
21899;SDS011;11114;50.658;12.704;2022-10-16T10:41:53;17.38;;;16.17;;
21899;SDS011;11114;50.658;12.704;2022-10-16T11:00:59;16.35;;;15.25;;
21899;SDS011;11114;50.658;12.704;2022-10-16T11:03:39;16.65;;;15.45;;
21899;SDS011;11114;50.658;12.704;2022-10-16T11:11:50;17.23;;;16.02;;
21899;SDS011;11114;50.658;12.704;2022-10-16T11:14:26;17.60;;;16.17;;
21899;SDS011;11114;50.658;12.704;2022-10-16T11:17:04;17.55;;;16.20;;
21899;SDS011;11114;50.658;12.704;2022-10-16T11:19:48;16.88;;;15.68;;
21899;SDS011;11114;50.658;12.704;2022-10-16T11:30:29;15.30;;;14.30;;
21899;SDS011;11114;50.658;12.704;2022-10-16T11:33:03;15.73;;;14.30;;
21899;SDS011;11114;50.658;12.704;2022-10-16T11:35:57;15.00;;;13.90;;
21899;SDS011;11114;50.658;12.704;2022-10-16T11:38:30;14.60;;;13.60;;
21899;SDS011;11114;50.658;12.704;2022-10-16T11:41:03;14.98;;;13.77;;
21899;SDS011;11114;50.658;12.704;2022-10-16T11:46:33;14.57;;;13.57;;
21899;SDS011;11114;50.658;12.704;2022-10-16T11:49:25;14.48;;;13.38;;
21899;SDS011;11114;50.658;12.704;2022-10-16T11:51:57;14.80;;;13.70;;
21899;SDS011;11114;50.658;12.704;2022-10-16T11:57:37;15.45;;;14.25;;
21899;SDS011;11114;50.658;12.704;2022-10-16T12:00:09;14.43;;;13.43;;
21899;SDS011;11114;50.658;12.704;2022-10-16T12:06:13;15.15;;;14.15;;
21899;SDS011;11114;50.658;12.704;2022-10-16T12:08:26;15.07;;;14.02;;
21899;SDS011;11114;50.658;12.704;2022-10-16T12:11:03;15.02;;;13.98;;
21899;SDS011;11114;50.658;12.704;2022-10-16T12:13:37;16.20;;;14.80;;
21899;SDS011;11114;50.658;12.704;2022-10-16T12:18:43;14.70;;;13.70;;
21899;SDS011;11114;50.658;12.704;2022-10-16T12:21:12;15.38;;;14.27;;
21899;SDS011;11114;50.658;12.704;2022-10-16T12:26:30;14.77;;;13.68;;
21899;SDS011;11114;50.658;12.704;2022-10-16T12:29:20;14.35;;;13.38;;
21899;SDS011;11114;50.658;12.704;2022-10-16T12:31:50;14.82;;;13.82;;
21899;SDS011;11114;50.658;12.704;2022-10-16T12:37:19;15.20;;;13.90;;
21899;SDS011;11114;50.658;12.704;2022-10-16T12:39:49;15.15;;;14.05;;
21899;SDS011;11114;50.658;12.704;2022-10-16T12:44:53;15.15;;;14.05;;
21899;SDS011;11114;50.658;12.704;2022-10-16T12:49:48;15.05;;;14.05;;
21899;SDS011;11114;50.658;12.704;2022-10-16T12:52:27;14.88;;;13.68;;
21899;SDS011;11114;50.658;12.704;2022-10-16T12:55:01;14.50;;;13.50;;
21899;SDS011;11114;50.658;12.704;2022-10-16T13:00:32;14.13;;;13.13;;
21899;SDS011;11114;50.658;12.704;2022-10-16T13:03:35;14.63;;;13.40;;
21899;SDS011;11114;50.658;12.704;2022-10-16T13:12:12;14.27;;;13.30;;
21899;SDS011;11114;50.658;12.704;2022-10-16T13:23:05;14.65;;;13.63;;
21899;SDS011;11114;50.658;12.704;2022-10-16T13:25:48;14.70;;;13.70;;
21899;SDS011;11114;50.658;12.704;2022-10-16T13:28:30;14.55;;;13.35;;
21899;SDS011;11114;50.658;12.704;2022-10-16T13:31:00;14.52;;;13.50;;
21899;SDS011;11114;50.658;12.704;2022-10-16T13:33:33;15.20;;;13.90;;
21899;SDS011;11114;50.658;12.704;2022-10-16T13:36:01;14.65;;;13.65;;
21899;SDS011;11114;50.658;12.704;2022-10-16T13:38:33;14.05;;;13.15;;
21899;SDS011;11114;50.658;12.704;2022-10-16T13:41:14;14.45;;;13.45;;
21899;SDS011;11114;50.658;12.704;2022-10-16T13:43:44;14.57;;;13.48;;
21899;SDS011;11114;50.658;12.704;2022-10-16T13:46:23;14.60;;;13.52;;
21899;SDS011;11114;50.658;12.704;2022-10-16T13:49:02;15.05;;;13.90;;
21899;SDS011;11114;50.658;12.704;2022-10-16T13:51:39;14.45;;;13.50;;
21899;SDS011;11114;50.658;12.704;2022-10-16T13:54:08;14.60;;;13.60;;
21899;SDS011;11114;50.658;12.704;2022-10-16T13:56:38;14.80;;;13.80;;
21899;SDS011;11114;50.658;12.704;2022-10-16T13:59:20;15.00;;;13.90;;
21899;SDS011;11114;50.658;12.704;2022-10-16T14:01:50;15.75;;;14.55;;
21899;SDS011;11114;50.658;12.704;2022-10-16T14:04:20;16.00;;;14.80;;
21899;SDS011;11114;50.658;12.704;2022-10-16T14:06:49;15.52;;;14.43;;
21899;SDS011;11114;50.658;12.704;2022-10-16T14:09:22;14.93;;;13.82;;
21899;SDS011;11114;50.658;12.704;2022-10-16T14:11:58;15.35;;;14.02;;
21899;SDS011;11114;50.658;12.704;2022-10-16T14:14:38;14.65;;;13.55;;
21899;SDS011;11114;50.658;12.704;2022-10-16T14:17:14;15.10;;;14.00;;
21899;SDS011;11114;50.658;12.704;2022-10-16T14:19:46;14.57;;;13.57;;
21899;SDS011;11114;50.658;12.704;2022-10-16T14:25:20;14.90;;;13.80;;
21899;SDS011;11114;50.658;12.704;2022-10-16T14:27:56;14.70;;;13.60;;
21899;SDS011;11114;50.658;12.704;2022-10-16T14:30:33;14.20;;;13.25;;
21899;SDS011;11114;50.658;12.704;2022-10-16T14:33:03;13.98;;;12.85;;
21899;SDS011;11114;50.658;12.704;2022-10-16T14:35:35;14.02;;;13.07;;
21899;SDS011;11114;50.658;12.704;2022-10-16T14:38:05;14.10;;;13.20;;
21899;SDS011;11114;50.658;12.704;2022-10-16T14:40:34;14.55;;;13.55;;
21899;SDS011;11114;50.658;12.704;2022-10-16T14:43:03;15.35;;;14.25;;
21899;SDS011;11114;50.658;12.704;2022-10-16T14:45:32;14.98;;;13.98;;
21899;SDS011;11114;50.658;12.704;2022-10-16T14:48:13;15.05;;;13.98;;
21899;SDS011;11114;50.658;12.704;2022-10-16T14:50:45;14.80;;;13.77;;
21899;SDS011;11114;50.658;12.704;2022-10-16T14:53:12;15.30;;;14.30;;
21899;SDS011;11114;50.658;12.704;2022-10-16T14:55:39;15.60;;;14.50;;
21899;SDS011;11114;50.658;12.704;2022-10-16T14:58:18;15.23;;;14.23;;
21899;SDS011;11114;50.658;12.704;2022-10-16T15:00:47;15.50;;;14.50;;
21899;SDS011;11114;50.658;12.704;2022-10-16T15:03:15;15.55;;;14.30;;
21899;SDS011;11114;50.658;12.704;2022-10-16T15:05:43;16.02;;;14.93;;
21899;SDS011;11114;50.658;12.704;2022-10-16T15:08:15;15.98;;;14.77;;
21899;SDS011;11114;50.658;12.704;2022-10-16T15:10:45;15.70;;;14.55;;
21899;SDS011;11114;50.658;12.704;2022-10-16T15:13:16;16.08;;;14.80;;
21899;SDS011;11114;50.658;12.704;2022-10-16T15:15:44;15.70;;;14.50;;
21899;SDS011;11114;50.658;12.704;2022-10-16T15:18:13;15.45;;;14.05;;
21899;SDS011;11114;50.658;12.704;2022-10-16T15:20:49;14.82;;;13.82;;
21899;SDS011;11114;50.658;12.704;2022-10-16T15:23:20;14.80;;;13.85;;
21899;SDS011;11114;50.658;12.704;2022-10-16T15:25:49;14.02;;;13.13;;
21899;SDS011;11114;50.658;12.704;2022-10-16T15:28:22;14.13;;;13.18;;
21899;SDS011;11114;50.658;12.704;2022-10-16T15:30:54;14.63;;;13.52;;
21899;SDS011;11114;50.658;12.704;2022-10-16T15:33:26;14.13;;;13.23;;
21899;SDS011;11114;50.658;12.704;2022-10-16T15:36:05;14.45;;;13.55;;
21899;SDS011;11114;50.658;12.704;2022-10-16T15:38:33;14.30;;;13.30;;
21899;SDS011;11114;50.658;12.704;2022-10-16T15:41:01;14.52;;;13.63;;
21899;SDS011;11114;50.658;12.704;2022-10-16T15:43:31;14.57;;;13.68;;
21899;SDS011;11114;50.658;12.704;2022-10-16T15:46:08;14.35;;;13.35;;
21899;SDS011;11114;50.658;12.704;2022-10-16T15:48:43;14.30;;;13.40;;
21899;SDS011;11114;50.658;12.704;2022-10-16T15:51:11;14.63;;;13.63;;
21899;SDS011;11114;50.658;12.704;2022-10-16T15:53:39;15.15;;;14.00;;
21899;SDS011;11114;50.658;12.704;2022-10-16T15:56:07;15.07;;;14.07;;
21899;SDS011;11114;50.658;12.704;2022-10-16T15:58:39;15.35;;;13.70;;
21899;SDS011;11114;50.658;12.704;2022-10-16T16:01:07;15.73;;;14.63;;
21899;SDS011;11114;50.658;12.704;2022-10-16T16:03:38;14.85;;;13.85;;
21899;SDS011;11114;50.658;12.704;2022-10-16T16:06:09;15.25;;;13.93;;
21899;SDS011;11114;50.658;12.704;2022-10-16T16:08:38;15.30;;;14.07;;
21899;SDS011;11114;50.658;12.704;2022-10-16T16:11:09;15.30;;;14.30;;
21899;SDS011;11114;50.658;12.704;2022-10-16T16:13:38;15.55;;;14.55;;
21899;SDS011;11114;50.658;12.704;2022-10-16T16:16:10;15.10;;;14.10;;
21899;SDS011;11114;50.658;12.704;2022-10-16T16:18:41;15.15;;;14.05;;
21899;SDS011;11114;50.658;12.704;2022-10-16T16:21:10;14.57;;;13.68;;
21899;SDS011;11114;50.658;12.704;2022-10-16T16:23:38;14.47;;;13.47;;
21899;SDS011;11114;50.658;12.704;2022-10-16T16:28:32;14.40;;;13.50;;
21899;SDS011;11114;50.658;12.704;2022-10-16T16:33:07;14.55;;;13.48;;
21899;SDS011;11114;50.658;12.704;2022-10-16T16:35:34;14.40;;;13.43;;
21899;SDS011;11114;50.658;12.704;2022-10-16T16:38:00;14.63;;;13.63;;
21899;SDS011;11114;50.658;12.704;2022-10-16T16:40:27;15.00;;;13.90;;
21899;SDS011;11114;50.658;12.704;2022-10-16T16:42:54;15.73;;;14.63;;
21899;SDS011;11114;50.658;12.704;2022-10-16T16:45:21;16.38;;;15.00;;